sensor_id;sensor_type;location;lat;lon;timestamp;temperature;humidity
20081;DHT22;10200;49.232;9.222;2022-12-22T00:01:42;8.60;99.90
20081;DHT22;10200;49.232;9.222;2022-12-22T00:04:27;8.70;99.90
20081;DHT22;10200;49.232;9.222;2022-12-22T00:07:11;8.70;99.90
20081;DHT22;10200;49.232;9.222;2022-12-22T00:09:55;8.70;99.90
20081;DHT22;10200;49.232;9.222;2022-12-22T00:12:39;8.70;99.90
20081;DHT22;10200;49.232;9.222;2022-12-22T00:15:33;8.70;99.90
20081;DHT22;10200;49.232;9.222;2022-12-22T00:18:17;8.70;99.90
20081;DHT22;10200;49.232;9.222;2022-12-22T00:21:02;8.70;99.90
20081;DHT22;10200;49.232;9.222;2022-12-22T00:23:46;8.70;99.90
20081;DHT22;10200;49.232;9.222;2022-12-22T00:26:31;8.70;99.90
20081;DHT22;10200;49.232;9.222;2022-12-22T00:29:16;8.70;99.90
20081;DHT22;10200;49.232;9.222;2022-12-22T00:32:01;8.70;99.90
20081;DHT22;10200;49.232;9.222;2022-12-22T00:34:46;8.70;99.90
20081;DHT22;10200;49.232;9.222;2022-12-22T00:37:33;8.70;99.90
20081;DHT22;10200;49.232;9.222;2022-12-22T00:40:23;8.70;99.90
20081;DHT22;10200;49.232;9.222;2022-12-22T00:43:08;8.70;99.90
20081;DHT22;10200;49.232;9.222;2022-12-22T00:45:52;8.80;99.90
20081;DHT22;10200;49.232;9.222;2022-12-22T00:48:38;8.80;99.90
20081;DHT22;10200;49.232;9.222;2022-12-22T00:51:24;8.70;99.90
20081;DHT22;10200;49.232;9.222;2022-12-22T00:54:10;8.80;99.90
20081;DHT22;10200;49.232;9.222;2022-12-22T00:56:56;8.80;99.90
20081;DHT22;10200;49.232;9.222;2022-12-22T00:59:41;8.80;99.90
20081;DHT22;10200;49.232;9.222;2022-12-22T01:02:25;8.80;99.90
20081;DHT22;10200;49.232;9.222;2022-12-22T01:05:09;8.80;99.90
20081;DHT22;10200;49.232;9.222;2022-12-22T01:07:54;8.80;99.90
20081;DHT22;10200;49.232;9.222;2022-12-22T01:10:38;8.90;99.90
20081;DHT22;10200;49.232;9.222;2022-12-22T01:13:24;8.90;99.90
20081;DHT22;10200;49.232;9.222;2022-12-22T01:16:10;8.90;99.90
20081;DHT22;10200;49.232;9.222;2022-12-22T01:18:54;9.00;99.90
20081;DHT22;10200;49.232;9.222;2022-12-22T01:21:39;9.00;99.90
20081;DHT22;10200;49.232;9.222;2022-12-22T01:24:25;9.00;99.90
20081;DHT22;10200;49.232;9.222;2022-12-22T01:27:10;9.00;99.90
20081;DHT22;10200;49.232;9.222;2022-12-22T01:29:55;9.10;99.90
20081;DHT22;10200;49.232;9.222;2022-12-22T01:32:39;9.10;99.90
20081;DHT22;10200;49.232;9.222;2022-12-22T01:35:27;9.10;99.90
20081;DHT22;10200;49.232;9.222;2022-12-22T01:38:11;9.10;99.90
20081;DHT22;10200;49.232;9.222;2022-12-22T01:40:57;9.10;99.90
20081;DHT22;10200;49.232;9.222;2022-12-22T01:43:42;9.10;99.90
20081;DHT22;10200;49.232;9.222;2022-12-22T01:46:44;9.00;99.90
20081;DHT22;10200;49.232;9.222;2022-12-22T01:49:42;9.10;99.90
20081;DHT22;10200;49.232;9.222;2022-12-22T01:52:32;9.00;99.90
20081;DHT22;10200;49.232;9.222;2022-12-22T01:55:21;9.00;99.90
20081;DHT22;10200;49.232;9.222;2022-12-22T01:58:19;9.00;99.90
20081;DHT22;10200;49.232;9.222;2022-12-22T02:01:04;9.00;99.90
20081;DHT22;10200;49.232;9.222;2022-12-22T02:03:48;9.00;99.90
20081;DHT22;10200;49.232;9.222;2022-12-22T02:06:41;9.00;99.90
20081;DHT22;10200;49.232;9.222;2022-12-22T02:12:41;9.00;99.90
20081;DHT22;10200;49.232;9.222;2022-12-22T02:22:00;9.00;99.90
20081;DHT22;10200;49.232;9.222;2022-12-22T02:25:00;9.00;99.90
20081;DHT22;10200;49.232;9.222;2022-12-22T02:27:48;9.00;99.90
20081;DHT22;10200;49.232;9.222;2022-12-22T02:30:35;9.10;99.90
20081;DHT22;10200;49.232;9.222;2022-12-22T02:33:20;9.10;99.90
20081;DHT22;10200;49.232;9.222;2022-12-22T02:36:19;9.10;99.90
20081;DHT22;10200;49.232;9.222;2022-12-22T02:39:17;9.10;99.90
20081;DHT22;10200;49.232;9.222;2022-12-22T02:45:23;9.20;99.90
20081;DHT22;10200;49.232;9.222;2022-12-22T02:48:15;9.20;99.90
20081;DHT22;10200;49.232;9.222;2022-12-22T02:51:15;9.20;99.90
20081;DHT22;10200;49.232;9.222;2022-12-22T02:54:01;9.30;99.90
20081;DHT22;10200;49.232;9.222;2022-12-22T02:56:47;9.30;99.90
20081;DHT22;10200;49.232;9.222;2022-12-22T02:59:31;9.30;99.90
20081;DHT22;10200;49.232;9.222;2022-12-22T03:02:15;9.30;99.90
20081;DHT22;10200;49.232;9.222;2022-12-22T03:04:59;9.30;99.90
20081;DHT22;10200;49.232;9.222;2022-12-22T03:07:43;9.30;99.90
20081;DHT22;10200;49.232;9.222;2022-12-22T03:10:27;9.40;99.90
20081;DHT22;10200;49.232;9.222;2022-12-22T03:13:11;9.40;99.90
20081;DHT22;10200;49.232;9.222;2022-12-22T03:15:55;9.40;99.90
20081;DHT22;10200;49.232;9.222;2022-12-22T03:18:40;9.40;99.90
20081;DHT22;10200;49.232;9.222;2022-12-22T03:21:24;9.40;99.90
20081;DHT22;10200;49.232;9.222;2022-12-22T03:24:08;9.40;99.90
20081;DHT22;10200;49.232;9.222;2022-12-22T03:26:52;9.40;99.90
20081;DHT22;10200;49.232;9.222;2022-12-22T03:29:17;9.40;99.90
20081;DHT22;10200;49.232;9.222;2022-12-22T03:31:43;9.40;99.90
20081;DHT22;10200;49.232;9.222;2022-12-22T03:34:08;9.40;99.90
20081;DHT22;10200;49.232;9.222;2022-12-22T03:36:34;9.40;99.90
20081;DHT22;10200;49.232;9.222;2022-12-22T03:39:00;9.40;99.90
20081;DHT22;10200;49.232;9.222;2022-12-22T03:41:25;9.40;99.90
20081;DHT22;10200;49.232;9.222;2022-12-22T03:44:09;9.40;99.90
20081;DHT22;10200;49.232;9.222;2022-12-22T03:46:53;9.40;99.90
20081;DHT22;10200;49.232;9.222;2022-12-22T03:49:19;9.40;99.90
20081;DHT22;10200;49.232;9.222;2022-12-22T03:51:48;9.40;99.90
20081;DHT22;10200;49.232;9.222;2022-12-22T03:54:19;9.40;99.90
20081;DHT22;10200;49.232;9.222;2022-12-22T03:56:46;9.40;99.90
20081;DHT22;10200;49.232;9.222;2022-12-22T03:59:12;9.40;99.90
20081;DHT22;10200;49.232;9.222;2022-12-22T04:01:43;9.40;99.90
20081;DHT22;10200;49.232;9.222;2022-12-22T04:04:09;9.40;99.90
20081;DHT22;10200;49.232;9.222;2022-12-22T04:06:35;9.50;99.90
20081;DHT22;10200;49.232;9.222;2022-12-22T04:09:00;9.50;99.90
20081;DHT22;10200;49.232;9.222;2022-12-22T04:11:26;9.60;99.90
20081;DHT22;10200;49.232;9.222;2022-12-22T04:14:10;9.60;99.90
20081;DHT22;10200;49.232;9.222;2022-12-22T04:16:36;9.70;99.90
20081;DHT22;10200;49.232;9.222;2022-12-22T04:19:01;9.70;99.90
20081;DHT22;10200;49.232;9.222;2022-12-22T04:21:27;9.80;99.90
20081;DHT22;10200;49.232;9.222;2022-12-22T04:23:53;9.80;99.90
20081;DHT22;10200;49.232;9.222;2022-12-22T04:26:20;9.90;99.90
20081;DHT22;10200;49.232;9.222;2022-12-22T04:28:47;9.90;99.90
20081;DHT22;10200;49.232;9.222;2022-12-22T04:31:12;9.90;99.90
20081;DHT22;10200;49.232;9.222;2022-12-22T04:33:38;10.00;99.90
20081;DHT22;10200;49.232;9.222;2022-12-22T04:36:04;10.00;99.90
20081;DHT22;10200;49.232;9.222;2022-12-22T04:38:30;10.00;99.90
20081;DHT22;10200;49.232;9.222;2022-12-22T04:40:55;10.10;99.90
20081;DHT22;10200;49.232;9.222;2022-12-22T04:43:21;10.10;99.90
20081;DHT22;10200;49.232;9.222;2022-12-22T04:45:51;10.10;99.90
20081;DHT22;10200;49.232;9.222;2022-12-22T04:48:17;10.20;99.90
20081;DHT22;10200;49.232;9.222;2022-12-22T04:50:42;10.20;99.90
20081;DHT22;10200;49.232;9.222;2022-12-22T04:53:08;10.20;99.90
20081;DHT22;10200;49.232;9.222;2022-12-22T04:55:33;10.20;99.90
20081;DHT22;10200;49.232;9.222;2022-12-22T04:57:59;10.20;99.90
20081;DHT22;10200;49.232;9.222;2022-12-22T05:00:24;10.20;99.90
20081;DHT22;10200;49.232;9.222;2022-12-22T05:02:51;10.10;99.90
20081;DHT22;10200;49.232;9.222;2022-12-22T05:05:16;10.10;99.90
20081;DHT22;10200;49.232;9.222;2022-12-22T05:07:42;10.10;99.90
20081;DHT22;10200;49.232;9.222;2022-12-22T05:10:09;10.10;99.90
20081;DHT22;10200;49.232;9.222;2022-12-22T05:12:34;10.10;99.90
20081;DHT22;10200;49.232;9.222;2022-12-22T05:15:26;10.10;99.90
20081;DHT22;10200;49.232;9.222;2022-12-22T05:17:52;10.10;99.90
20081;DHT22;10200;49.232;9.222;2022-12-22T05:20:18;10.10;99.90
20081;DHT22;10200;49.232;9.222;2022-12-22T05:22:44;10.10;99.90
20081;DHT22;10200;49.232;9.222;2022-12-22T05:25:11;10.10;99.90
20081;DHT22;10200;49.232;9.222;2022-12-22T05:27:37;10.00;99.90
20081;DHT22;10200;49.232;9.222;2022-12-22T05:30:04;10.00;99.90
20081;DHT22;10200;49.232;9.222;2022-12-22T05:32:32;10.10;99.90
20081;DHT22;10200;49.232;9.222;2022-12-22T05:34:58;10.10;99.90
20081;DHT22;10200;49.232;9.222;2022-12-22T05:37:23;10.10;99.90
20081;DHT22;10200;49.232;9.222;2022-12-22T05:39:49;10.10;99.90
20081;DHT22;10200;49.232;9.222;2022-12-22T05:42:15;10.10;99.90
20081;DHT22;10200;49.232;9.222;2022-12-22T05:45:04;10.10;99.90
20081;DHT22;10200;49.232;9.222;2022-12-22T05:47:29;10.10;99.90
20081;DHT22;10200;49.232;9.222;2022-12-22T05:49:55;10.10;99.90
20081;DHT22;10200;49.232;9.222;2022-12-22T05:52:20;10.10;99.90
20081;DHT22;10200;49.232;9.222;2022-12-22T05:54:46;10.10;99.90
20081;DHT22;10200;49.232;9.222;2022-12-22T05:57:11;10.10;99.90
20081;DHT22;10200;49.232;9.222;2022-12-22T05:59:37;10.10;99.90
20081;DHT22;10200;49.232;9.222;2022-12-22T06:02:02;10.10;99.90
20081;DHT22;10200;49.232;9.222;2022-12-22T06:04:28;10.10;99.90
20081;DHT22;10200;49.232;9.222;2022-12-22T06:06:53;10.20;99.90
20081;DHT22;10200;49.232;9.222;2022-12-22T06:09:19;10.10;99.90
20081;DHT22;10200;49.232;9.222;2022-12-22T06:11:44;10.20;99.90
20081;DHT22;10200;49.232;9.222;2022-12-22T06:14:10;10.20;99.90
20081;DHT22;10200;49.232;9.222;2022-12-22T06:16:36;10.20;99.90
20081;DHT22;10200;49.232;9.222;2022-12-22T06:19:01;10.20;99.90
20081;DHT22;10200;49.232;9.222;2022-12-22T06:21:27;10.20;99.90
20081;DHT22;10200;49.232;9.222;2022-12-22T06:23:52;10.20;99.90
20081;DHT22;10200;49.232;9.222;2022-12-22T06:26:19;10.20;99.90
20081;DHT22;10200;49.232;9.222;2022-12-22T06:28:45;10.20;99.90
20081;DHT22;10200;49.232;9.222;2022-12-22T06:31:10;10.20;99.90
20081;DHT22;10200;49.232;9.222;2022-12-22T06:33:36;10.20;99.90
20081;DHT22;10200;49.232;9.222;2022-12-22T06:36:06;10.20;99.90
20081;DHT22;10200;49.232;9.222;2022-12-22T06:38:32;10.20;99.90
20081;DHT22;10200;49.232;9.222;2022-12-22T06:40:58;10.20;99.90
20081;DHT22;10200;49.232;9.222;2022-12-22T06:43:24;10.20;99.90
20081;DHT22;10200;49.232;9.222;2022-12-22T06:45:50;10.20;99.90
20081;DHT22;10200;49.232;9.222;2022-12-22T06:48:15;10.20;99.90
20081;DHT22;10200;49.232;9.222;2022-12-22T06:50:41;10.20;99.90
20081;DHT22;10200;49.232;9.222;2022-12-22T06:53:07;10.20;99.90
20081;DHT22;10200;49.232;9.222;2022-12-22T06:55:34;10.20;99.90
20081;DHT22;10200;49.232;9.222;2022-12-22T06:58:00;10.20;99.90
20081;DHT22;10200;49.232;9.222;2022-12-22T07:00:26;10.20;99.90
20081;DHT22;10200;49.232;9.222;2022-12-22T07:02:52;10.20;99.90
20081;DHT22;10200;49.232;9.222;2022-12-22T07:05:17;10.20;99.90
20081;DHT22;10200;49.232;9.222;2022-12-22T07:07:43;10.20;99.90
20081;DHT22;10200;49.232;9.222;2022-12-22T07:10:09;10.20;99.90
20081;DHT22;10200;49.232;9.222;2022-12-22T07:12:34;10.20;99.90
20081;DHT22;10200;49.232;9.222;2022-12-22T07:15:00;10.10;99.90
20081;DHT22;10200;49.232;9.222;2022-12-22T07:17:26;10.10;99.90
20081;DHT22;10200;49.232;9.222;2022-12-22T07:19:51;10.10;99.90
20081;DHT22;10200;49.232;9.222;2022-12-22T07:22:17;10.00;99.90
20081;DHT22;10200;49.232;9.222;2022-12-22T07:24:42;10.00;99.90
20081;DHT22;10200;49.232;9.222;2022-12-22T07:27:08;10.00;99.90
20081;DHT22;10200;49.232;9.222;2022-12-22T07:29:34;10.00;99.90
20081;DHT22;10200;49.232;9.222;2022-12-22T07:32:01;10.00;99.90
20081;DHT22;10200;49.232;9.222;2022-12-22T07:34:26;10.00;99.90
20081;DHT22;10200;49.232;9.222;2022-12-22T07:36:52;10.00;99.90
20081;DHT22;10200;49.232;9.222;2022-12-22T07:39:17;10.00;99.90
20081;DHT22;10200;49.232;9.222;2022-12-22T07:41:43;10.00;99.90
20081;DHT22;10200;49.232;9.222;2022-12-22T07:44:27;10.00;99.90
20081;DHT22;10200;49.232;9.222;2022-12-22T07:46:53;10.00;99.90
20081;DHT22;10200;49.232;9.222;2022-12-22T07:49:18;10.00;99.90
20081;DHT22;10200;49.232;9.222;2022-12-22T07:52:03;10.00;99.90
20081;DHT22;10200;49.232;9.222;2022-12-22T07:54:28;10.00;99.90
20081;DHT22;10200;49.232;9.222;2022-12-22T07:56:54;10.00;99.90
20081;DHT22;10200;49.232;9.222;2022-12-22T07:59:20;10.00;99.90
20081;DHT22;10200;49.232;9.222;2022-12-22T08:01:46;10.00;99.90
20081;DHT22;10200;49.232;9.222;2022-12-22T08:04:13;10.00;99.90
20081;DHT22;10200;49.232;9.222;2022-12-22T08:06:39;10.00;99.90
20081;DHT22;10200;49.232;9.222;2022-12-22T08:09:06;10.10;99.90
20081;DHT22;10200;49.232;9.222;2022-12-22T08:11:32;10.10;99.90
20081;DHT22;10200;49.232;9.222;2022-12-22T08:13:58;10.20;99.90
20081;DHT22;10200;49.232;9.222;2022-12-22T08:16:24;10.30;99.90
20081;DHT22;10200;49.232;9.222;2022-12-22T08:18:49;10.30;99.90
20081;DHT22;10200;49.232;9.222;2022-12-22T08:21:15;10.40;99.90
20081;DHT22;10200;49.232;9.222;2022-12-22T08:23:41;10.50;99.90
20081;DHT22;10200;49.232;9.222;2022-12-22T08:26:13;10.50;99.90
20081;DHT22;10200;49.232;9.222;2022-12-22T08:31:14;10.50;99.90
20081;DHT22;10200;49.232;9.222;2022-12-22T08:33:40;10.60;99.90
20081;DHT22;10200;49.232;9.222;2022-12-22T08:36:07;10.60;99.90
20081;DHT22;10200;49.232;9.222;2022-12-22T08:38:33;10.60;99.90
20081;DHT22;10200;49.232;9.222;2022-12-22T08:40:59;10.70;99.90
20081;DHT22;10200;49.232;9.222;2022-12-22T08:43:25;10.70;99.90
20081;DHT22;10200;49.232;9.222;2022-12-22T08:45:51;10.80;99.90
20081;DHT22;10200;49.232;9.222;2022-12-22T08:48:16;10.80;99.90
20081;DHT22;10200;49.232;9.222;2022-12-22T08:50:42;10.80;99.90
20081;DHT22;10200;49.232;9.222;2022-12-22T08:53:08;10.80;99.90
20081;DHT22;10200;49.232;9.222;2022-12-22T08:55:34;10.80;99.90
20081;DHT22;10200;49.232;9.222;2022-12-22T08:58:00;10.90;99.90
20081;DHT22;10200;49.232;9.222;2022-12-22T09:00:25;10.90;99.90
20081;DHT22;10200;49.232;9.222;2022-12-22T09:02:51;11.00;99.90
20081;DHT22;10200;49.232;9.222;2022-12-22T09:05:17;11.00;99.90
20081;DHT22;10200;49.232;9.222;2022-12-22T09:07:43;11.10;99.90
20081;DHT22;10200;49.232;9.222;2022-12-22T09:10:11;11.10;99.90
20081;DHT22;10200;49.232;9.222;2022-12-22T09:12:37;11.10;99.90
20081;DHT22;10200;49.232;9.222;2022-12-22T09:15:03;11.20;99.90
20081;DHT22;10200;49.232;9.222;2022-12-22T09:17:30;11.20;99.90
20081;DHT22;10200;49.232;9.222;2022-12-22T09:19:56;11.20;99.90
20081;DHT22;10200;49.232;9.222;2022-12-22T09:22:21;11.20;99.90
20081;DHT22;10200;49.232;9.222;2022-12-22T09:24:47;11.20;99.90
20081;DHT22;10200;49.232;9.222;2022-12-22T09:27:12;11.20;99.90
20081;DHT22;10200;49.232;9.222;2022-12-22T09:29:39;11.20;99.90
20081;DHT22;10200;49.232;9.222;2022-12-22T09:32:05;11.30;99.90
20081;DHT22;10200;49.232;9.222;2022-12-22T09:34:31;11.30;99.90
20081;DHT22;10200;49.232;9.222;2022-12-22T09:36:56;11.40;99.90
20081;DHT22;10200;49.232;9.222;2022-12-22T09:39:22;11.30;99.90
20081;DHT22;10200;49.232;9.222;2022-12-22T09:41:55;11.30;99.90
20081;DHT22;10200;49.232;9.222;2022-12-22T09:44:26;11.30;99.90
20081;DHT22;10200;49.232;9.222;2022-12-22T09:46:54;11.20;99.90
20081;DHT22;10200;49.232;9.222;2022-12-22T09:49:21;11.20;99.90
20081;DHT22;10200;49.232;9.222;2022-12-22T09:51:53;11.20;99.90
20081;DHT22;10200;49.232;9.222;2022-12-22T09:54:20;11.20;99.90
20081;DHT22;10200;49.232;9.222;2022-12-22T09:56:46;11.20;99.90
20081;DHT22;10200;49.232;9.222;2022-12-22T09:59:16;11.20;99.90
20081;DHT22;10200;49.232;9.222;2022-12-22T10:02:01;11.30;99.90
20081;DHT22;10200;49.232;9.222;2022-12-22T10:07:34;11.30;99.90
20081;DHT22;10200;49.232;9.222;2022-12-22T10:10:07;11.30;99.90
20081;DHT22;10200;49.232;9.222;2022-12-22T10:12:32;11.30;99.90
20081;DHT22;10200;49.232;9.222;2022-12-22T10:14:58;11.30;99.90
20081;DHT22;10200;49.232;9.222;2022-12-22T10:17:33;11.30;99.90
20081;DHT22;10200;49.232;9.222;2022-12-22T10:20:25;11.30;99.90
20081;DHT22;10200;49.232;9.222;2022-12-22T10:22:57;11.40;99.90
20081;DHT22;10200;49.232;9.222;2022-12-22T10:25:27;11.40;99.90
20081;DHT22;10200;49.232;9.222;2022-12-22T10:27:56;11.40;99.90
20081;DHT22;10200;49.232;9.222;2022-12-22T10:30:28;11.50;99.90
20081;DHT22;10200;49.232;9.222;2022-12-22T10:33:32;11.50;99.90
20081;DHT22;10200;49.232;9.222;2022-12-22T10:35:58;11.50;99.90
20081;DHT22;10200;49.232;9.222;2022-12-22T10:38:33;11.40;99.90
20081;DHT22;10200;49.232;9.222;2022-12-22T10:41:12;11.40;99.90
20081;DHT22;10200;49.232;9.222;2022-12-22T10:43:47;11.40;99.90
20081;DHT22;10200;49.232;9.222;2022-12-22T10:46:13;11.40;99.90
20081;DHT22;10200;49.232;9.222;2022-12-22T10:48:39;11.50;99.90
20081;DHT22;10200;49.232;9.222;2022-12-22T10:51:11;11.60;99.90
20081;DHT22;10200;49.232;9.222;2022-12-22T10:53:51;11.60;99.90
20081;DHT22;10200;49.232;9.222;2022-12-22T10:59:15;11.70;99.90
20081;DHT22;10200;49.232;9.222;2022-12-22T11:01:43;11.70;99.90
20081;DHT22;10200;49.232;9.222;2022-12-22T11:04:23;11.70;99.90
20081;DHT22;10200;49.232;9.222;2022-12-22T11:06:50;11.70;99.90
20081;DHT22;10200;49.232;9.222;2022-12-22T11:09:16;11.70;99.90
20081;DHT22;10200;49.232;9.222;2022-12-22T11:11:58;11.70;99.90
20081;DHT22;10200;49.232;9.222;2022-12-22T11:14:30;11.70;99.90
20081;DHT22;10200;49.232;9.222;2022-12-22T11:22:47;11.50;99.90
20081;DHT22;10200;49.232;9.222;2022-12-22T11:25:18;11.50;99.90
20081;DHT22;10200;49.232;9.222;2022-12-22T11:36:07;11.30;99.90
20081;DHT22;10200;49.232;9.222;2022-12-22T11:38:47;11.30;99.90
20081;DHT22;10200;49.232;9.222;2022-12-22T11:47:41;11.30;99.90
20081;DHT22;10200;49.232;9.222;2022-12-22T11:58:14;11.30;99.90
20081;DHT22;10200;49.232;9.222;2022-12-22T12:04:09;11.40;99.90
20081;DHT22;10200;49.232;9.222;2022-12-22T12:07:04;11.40;99.90
20081;DHT22;10200;49.232;9.222;2022-12-22T12:12:26;11.50;99.90
20081;DHT22;10200;49.232;9.222;2022-12-22T12:23:17;11.50;99.90
20081;DHT22;10200;49.232;9.222;2022-12-22T12:31:16;11.50;99.90
20081;DHT22;10200;49.232;9.222;2022-12-22T12:33:50;11.50;99.90
20081;DHT22;10200;49.232;9.222;2022-12-22T12:39:35;11.50;99.90
20081;DHT22;10200;49.232;9.222;2022-12-22T12:44:37;11.40;99.90
20081;DHT22;10200;49.232;9.222;2022-12-22T12:58:10;11.30;99.90
20081;DHT22;10200;49.232;9.222;2022-12-22T13:08:26;11.30;99.90
20081;DHT22;10200;49.232;9.222;2022-12-22T13:16:19;11.30;99.90
20081;DHT22;10200;49.232;9.222;2022-12-22T13:23:37;11.40;99.90
20081;DHT22;10200;49.232;9.222;2022-12-22T13:26:14;11.40;99.90
20081;DHT22;10200;49.232;9.222;2022-12-22T13:28:43;11.40;99.90
20081;DHT22;10200;49.232;9.222;2022-12-22T13:36:45;11.50;99.90
20081;DHT22;10200;49.232;9.222;2022-12-22T13:39:14;11.60;99.90
20081;DHT22;10200;49.232;9.222;2022-12-22T13:41:43;11.60;99.90
20081;DHT22;10200;49.232;9.222;2022-12-22T13:44:30;11.70;99.90
20081;DHT22;10200;49.232;9.222;2022-12-22T13:47:03;11.70;99.90
20081;DHT22;10200;49.232;9.222;2022-12-22T13:49:30;11.80;99.90
20081;DHT22;10200;49.232;9.222;2022-12-22T13:51:56;11.80;99.90
20081;DHT22;10200;49.232;9.222;2022-12-22T13:54:27;11.70;99.90
20081;DHT22;10200;49.232;9.222;2022-12-22T13:56:55;11.80;99.90
20081;DHT22;10200;49.232;9.222;2022-12-22T13:59:44;11.70;99.90
20081;DHT22;10200;49.232;9.222;2022-12-22T14:04:39;11.70;99.90
20081;DHT22;10200;49.232;9.222;2022-12-22T14:07:11;11.70;99.90
20081;DHT22;10200;49.232;9.222;2022-12-22T14:09:45;11.80;99.90
20081;DHT22;10200;49.232;9.222;2022-12-22T14:12:20;11.80;99.90
20081;DHT22;10200;49.232;9.222;2022-12-22T14:14:48;11.80;99.90
20081;DHT22;10200;49.232;9.222;2022-12-22T14:17:30;11.80;99.90
20081;DHT22;10200;49.232;9.222;2022-12-22T14:19:58;11.80;99.90
20081;DHT22;10200;49.232;9.222;2022-12-22T14:22:32;11.90;99.90
20081;DHT22;10200;49.232;9.222;2022-12-22T14:25:02;11.90;99.90
20081;DHT22;10200;49.232;9.222;2022-12-22T14:27:40;11.80;99.90
20081;DHT22;10200;49.232;9.222;2022-12-22T14:30:20;11.80;99.90
20081;DHT22;10200;49.232;9.222;2022-12-22T14:32:48;11.80;99.90
20081;DHT22;10200;49.232;9.222;2022-12-22T14:37:54;11.80;99.90
20081;DHT22;10200;49.232;9.222;2022-12-22T14:40:31;11.60;99.90
20081;DHT22;10200;49.232;9.222;2022-12-22T14:42:59;11.60;99.90
20081;DHT22;10200;49.232;9.222;2022-12-22T14:45:25;11.60;99.90
20081;DHT22;10200;49.232;9.222;2022-12-22T14:47:52;11.50;99.90
20081;DHT22;10200;49.232;9.222;2022-12-22T14:50:21;11.40;99.90
20081;DHT22;10200;49.232;9.222;2022-12-22T14:52:58;11.40;99.90
20081;DHT22;10200;49.232;9.222;2022-12-22T14:55:40;11.40;99.90
20081;DHT22;10200;49.232;9.222;2022-12-22T15:00:36;11.20;99.90
20081;DHT22;10200;49.232;9.222;2022-12-22T15:03:35;11.20;99.90
20081;DHT22;10200;49.232;9.222;2022-12-22T15:06:29;11.20;99.90
20081;DHT22;10200;49.232;9.222;2022-12-22T15:09:06;11.20;99.90
20081;DHT22;10200;49.232;9.222;2022-12-22T15:11:35;11.20;99.90
20081;DHT22;10200;49.232;9.222;2022-12-22T15:14:02;11.10;99.90
20081;DHT22;10200;49.232;9.222;2022-12-22T15:16:28;11.10;99.90
20081;DHT22;10200;49.232;9.222;2022-12-22T15:18:53;11.10;99.90
20081;DHT22;10200;49.232;9.222;2022-12-22T15:21:19;11.10;99.90
20081;DHT22;10200;49.232;9.222;2022-12-22T15:23:45;11.10;99.90
20081;DHT22;10200;49.232;9.222;2022-12-22T15:26:11;11.00;99.90
20081;DHT22;10200;49.232;9.222;2022-12-22T15:28:37;11.00;99.90
20081;DHT22;10200;49.232;9.222;2022-12-22T15:31:08;11.00;99.90
20081;DHT22;10200;49.232;9.222;2022-12-22T15:33:36;10.90;99.90
20081;DHT22;10200;49.232;9.222;2022-12-22T15:36:02;10.90;99.90
20081;DHT22;10200;49.232;9.222;2022-12-22T15:38:27;10.90;99.90
20081;DHT22;10200;49.232;9.222;2022-12-22T15:40:53;10.90;99.90
20081;DHT22;10200;49.232;9.222;2022-12-22T15:43:19;10.90;99.90
20081;DHT22;10200;49.232;9.222;2022-12-22T15:45:45;10.80;99.90
20081;DHT22;10200;49.232;9.222;2022-12-22T15:48:15;10.80;99.90
20081;DHT22;10200;49.232;9.222;2022-12-22T15:50:43;10.80;99.90
20081;DHT22;10200;49.232;9.222;2022-12-22T15:53:15;10.80;99.90
20081;DHT22;10200;49.232;9.222;2022-12-22T15:55:46;10.70;99.90
20081;DHT22;10200;49.232;9.222;2022-12-22T15:58:16;10.80;99.90
20081;DHT22;10200;49.232;9.222;2022-12-22T16:00:43;10.70;99.90
20081;DHT22;10200;49.232;9.222;2022-12-22T16:03:09;10.70;99.90
20081;DHT22;10200;49.232;9.222;2022-12-22T16:05:36;10.70;99.90
20081;DHT22;10200;49.232;9.222;2022-12-22T16:08:02;10.70;99.90
20081;DHT22;10200;49.232;9.222;2022-12-22T16:10:30;10.70;99.90
20081;DHT22;10200;49.232;9.222;2022-12-22T16:12:59;10.70;99.90
20081;DHT22;10200;49.232;9.222;2022-12-22T16:15:32;10.70;99.90
20081;DHT22;10200;49.232;9.222;2022-12-22T16:18:00;10.70;99.90
20081;DHT22;10200;49.232;9.222;2022-12-22T16:20:28;10.70;99.90
20081;DHT22;10200;49.232;9.222;2022-12-22T16:22:56;10.70;99.90
20081;DHT22;10200;49.232;9.222;2022-12-22T16:25:26;10.70;99.90
20081;DHT22;10200;49.232;9.222;2022-12-22T16:27:54;10.70;99.90
20081;DHT22;10200;49.232;9.222;2022-12-22T16:30:24;10.60;99.90
20081;DHT22;10200;49.232;9.222;2022-12-22T16:32:51;10.70;99.90
20081;DHT22;10200;49.232;9.222;2022-12-22T16:35:27;10.60;99.90
20081;DHT22;10200;49.232;9.222;2022-12-22T16:37:58;10.70;99.90
20081;DHT22;10200;49.232;9.222;2022-12-22T16:40:25;10.60;99.90
20081;DHT22;10200;49.232;9.222;2022-12-22T16:43:10;10.60;99.90
20081;DHT22;10200;49.232;9.222;2022-12-22T16:45:36;10.60;99.90
20081;DHT22;10200;49.232;9.222;2022-12-22T16:48:11;10.60;99.90
20081;DHT22;10200;49.232;9.222;2022-12-22T16:50:38;10.60;99.90
20081;DHT22;10200;49.232;9.222;2022-12-22T16:53:09;10.70;99.90
20081;DHT22;10200;49.232;9.222;2022-12-22T16:55:35;10.60;99.90
20081;DHT22;10200;49.232;9.222;2022-12-22T16:58:01;10.60;99.90
20081;DHT22;10200;49.232;9.222;2022-12-22T17:00:29;10.60;99.90
20081;DHT22;10200;49.232;9.222;2022-12-22T17:03:01;10.60;99.90
20081;DHT22;10200;49.232;9.222;2022-12-22T17:05:29;10.60;99.90
20081;DHT22;10200;49.232;9.222;2022-12-22T17:07:58;10.60;99.90
20081;DHT22;10200;49.232;9.222;2022-12-22T17:10:25;10.60;99.90
20081;DHT22;10200;49.232;9.222;2022-12-22T17:12:52;10.60;99.90
20081;DHT22;10200;49.232;9.222;2022-12-22T17:15:20;10.60;99.90
20081;DHT22;10200;49.232;9.222;2022-12-22T17:17:47;10.60;99.90
20081;DHT22;10200;49.232;9.222;2022-12-22T17:20:17;10.60;99.90
20081;DHT22;10200;49.232;9.222;2022-12-22T17:22:51;10.60;99.90
20081;DHT22;10200;49.232;9.222;2022-12-22T17:25:26;10.60;99.90
20081;DHT22;10200;49.232;9.222;2022-12-22T17:27:52;10.60;99.90
20081;DHT22;10200;49.232;9.222;2022-12-22T17:30:21;10.60;99.90
20081;DHT22;10200;49.232;9.222;2022-12-22T17:32:48;10.60;99.90
20081;DHT22;10200;49.232;9.222;2022-12-22T17:35:15;10.50;99.90
20081;DHT22;10200;49.232;9.222;2022-12-22T17:37:43;10.60;99.90
20081;DHT22;10200;49.232;9.222;2022-12-22T17:40:14;10.50;99.90
20081;DHT22;10200;49.232;9.222;2022-12-22T17:42:43;10.50;99.90
20081;DHT22;10200;49.232;9.222;2022-12-22T17:45:15;10.50;99.90
20081;DHT22;10200;49.232;9.222;2022-12-22T17:47:41;10.50;99.90
20081;DHT22;10200;49.232;9.222;2022-12-22T17:50:11;10.50;99.90
20081;DHT22;10200;49.232;9.222;2022-12-22T17:52:38;10.50;99.90
20081;DHT22;10200;49.232;9.222;2022-12-22T17:55:04;10.40;99.90
20081;DHT22;10200;49.232;9.222;2022-12-22T17:57:32;10.40;99.90
20081;DHT22;10200;49.232;9.222;2022-12-22T17:59:59;10.40;99.90
20081;DHT22;10200;49.232;9.222;2022-12-22T18:02:25;10.40;99.90
20081;DHT22;10200;49.232;9.222;2022-12-22T18:04:51;10.40;99.90